sensor_id;sensor_type;location;lat;lon;timestamp;temperature;humidity
22319;DHT22;11327;52.334;9.506;2024-01-11T00:02:20;-6.80;99.90
22319;DHT22;11327;52.334;9.506;2024-01-11T00:05:40;-6.80;99.90
22319;DHT22;11327;52.334;9.506;2024-01-11T00:09:02;-6.70;99.90
22319;DHT22;11327;52.334;9.506;2024-01-11T00:12:23;-6.70;99.90
22319;DHT22;11327;52.334;9.506;2024-01-11T00:15:43;-6.50;99.90
22319;DHT22;11327;52.334;9.506;2024-01-11T00:19:04;-6.50;99.90
22319;DHT22;11327;52.334;9.506;2024-01-11T00:22:25;-6.50;99.90
22319;DHT22;11327;52.334;9.506;2024-01-11T00:25:45;-6.50;99.90
22319;DHT22;11327;52.334;9.506;2024-01-11T00:29:06;-6.50;99.90
22319;DHT22;11327;52.334;9.506;2024-01-11T00:32:27;-6.50;99.90
22319;DHT22;11327;52.334;9.506;2024-01-11T00:35:48;-6.70;99.90
22319;DHT22;11327;52.334;9.506;2024-01-11T00:39:08;-6.80;99.90
22319;DHT22;11327;52.334;9.506;2024-01-11T00:42:29;-6.80;99.90
22319;DHT22;11327;52.334;9.506;2024-01-11T00:45:50;-6.80;99.90
22319;DHT22;11327;52.334;9.506;2024-01-11T00:49:11;-6.90;99.90
22319;DHT22;11327;52.334;9.506;2024-01-11T00:52:31;-6.90;99.90
22319;DHT22;11327;52.334;9.506;2024-01-11T00:55:52;-7.00;99.90
22319;DHT22;11327;52.334;9.506;2024-01-11T00:59:13;-7.00;99.90
22319;DHT22;11327;52.334;9.506;2024-01-11T01:02:33;-7.00;99.90
22319;DHT22;11327;52.334;9.506;2024-01-11T01:05:54;-7.10;99.90
22319;DHT22;11327;52.334;9.506;2024-01-11T01:09:15;-7.00;99.90
22319;DHT22;11327;52.334;9.506;2024-01-11T01:12:35;-7.00;99.90
22319;DHT22;11327;52.334;9.506;2024-01-11T01:15:56;-7.00;99.90
22319;DHT22;11327;52.334;9.506;2024-01-11T01:19:17;-7.00;99.90
22319;DHT22;11327;52.334;9.506;2024-01-11T01:22:37;-7.00;99.90
22319;DHT22;11327;52.334;9.506;2024-01-11T01:25:58;-7.00;99.90
22319;DHT22;11327;52.334;9.506;2024-01-11T01:29:19;-7.00;99.90
22319;DHT22;11327;52.334;9.506;2024-01-11T01:32:40;-7.00;99.90
22319;DHT22;11327;52.334;9.506;2024-01-11T01:36:00;-7.00;99.90
22319;DHT22;11327;52.334;9.506;2024-01-11T01:39:21;-7.10;99.90
22319;DHT22;11327;52.334;9.506;2024-01-11T01:42:43;-7.10;99.90
22319;DHT22;11327;52.334;9.506;2024-01-11T01:46:06;-7.10;99.90
22319;DHT22;11327;52.334;9.506;2024-01-11T01:49:28;-7.00;99.90
22319;DHT22;11327;52.334;9.506;2024-01-11T01:52:48;-7.00;99.90
22319;DHT22;11327;52.334;9.506;2024-01-11T01:56:10;-7.00;99.90
22319;DHT22;11327;52.334;9.506;2024-01-11T01:59:31;-7.00;99.90
22319;DHT22;11327;52.334;9.506;2024-01-11T02:02:52;-7.00;99.90
22319;DHT22;11327;52.334;9.506;2024-01-11T02:06:14;-7.00;99.90
22319;DHT22;11327;52.334;9.506;2024-01-11T02:09:36;-7.00;99.90
22319;DHT22;11327;52.334;9.506;2024-01-11T02:12:57;-6.90;99.90
22319;DHT22;11327;52.334;9.506;2024-01-11T02:16:18;-6.90;99.90
22319;DHT22;11327;52.334;9.506;2024-01-11T02:19:38;-6.90;99.90
22319;DHT22;11327;52.334;9.506;2024-01-11T02:23:03;-7.10;99.90
22319;DHT22;11327;52.334;9.506;2024-01-11T02:26:24;-7.00;99.90
22319;DHT22;11327;52.334;9.506;2024-01-11T02:29:44;-7.00;99.90
22319;DHT22;11327;52.334;9.506;2024-01-11T02:33:05;-7.00;99.90
22319;DHT22;11327;52.334;9.506;2024-01-11T02:36:26;-7.10;99.90
22319;DHT22;11327;52.334;9.506;2024-01-11T02:39:47;-7.10;99.90
22319;DHT22;11327;52.334;9.506;2024-01-11T02:43:10;-7.10;99.90
22319;DHT22;11327;52.334;9.506;2024-01-11T02:46:31;-7.10;99.90
22319;DHT22;11327;52.334;9.506;2024-01-11T02:49:52;-7.10;99.90
22319;DHT22;11327;52.334;9.506;2024-01-11T02:53:13;-7.10;99.90
22319;DHT22;11327;52.334;9.506;2024-01-11T02:56:33;-7.10;99.90
22319;DHT22;11327;52.334;9.506;2024-01-11T02:59:54;-7.10;99.90
22319;DHT22;11327;52.334;9.506;2024-01-11T03:03:15;-7.10;99.90
22319;DHT22;11327;52.334;9.506;2024-01-11T03:06:36;-7.00;99.90
22319;DHT22;11327;52.334;9.506;2024-01-11T03:09:57;-7.10;99.90
22319;DHT22;11327;52.334;9.506;2024-01-11T03:13:17;-7.10;99.90
22319;DHT22;11327;52.334;9.506;2024-01-11T03:16:38;-7.00;99.90
22319;DHT22;11327;52.334;9.506;2024-01-11T03:20:00;-7.00;99.90
22319;DHT22;11327;52.334;9.506;2024-01-11T03:23:20;-6.90;99.90
22319;DHT22;11327;52.334;9.506;2024-01-11T03:26:41;-6.90;99.90
22319;DHT22;11327;52.334;9.506;2024-01-11T03:30:02;-6.80;99.90
22319;DHT22;11327;52.334;9.506;2024-01-11T03:33:24;-6.80;99.90
22319;DHT22;11327;52.334;9.506;2024-01-11T03:36:45;-6.90;99.90
22319;DHT22;11327;52.334;9.506;2024-01-11T03:40:06;-6.90;99.90
22319;DHT22;11327;52.334;9.506;2024-01-11T03:43:27;-7.00;99.90
22319;DHT22;11327;52.334;9.506;2024-01-11T03:46:48;-7.00;99.90
22319;DHT22;11327;52.334;9.506;2024-01-11T03:50:09;-7.10;99.90
22319;DHT22;11327;52.334;9.506;2024-01-11T03:53:29;-7.10;99.90
22319;DHT22;11327;52.334;9.506;2024-01-11T03:56:50;-7.20;99.90
22319;DHT22;11327;52.334;9.506;2024-01-11T04:00:11;-7.10;99.90
22319;DHT22;11327;52.334;9.506;2024-01-11T04:03:32;-7.20;99.90
22319;DHT22;11327;52.334;9.506;2024-01-11T04:06:53;-7.20;99.90
22319;DHT22;11327;52.334;9.506;2024-01-11T04:10:17;-7.20;99.90
22319;DHT22;11327;52.334;9.506;2024-01-11T04:13:38;-7.10;99.90
22319;DHT22;11327;52.334;9.506;2024-01-11T04:16:59;-7.10;99.90
22319;DHT22;11327;52.334;9.506;2024-01-11T04:20:20;-7.10;99.90
22319;DHT22;11327;52.334;9.506;2024-01-11T04:23:41;-7.10;99.90
22319;DHT22;11327;52.334;9.506;2024-01-11T04:27:02;-7.10;99.90
22319;DHT22;11327;52.334;9.506;2024-01-11T04:30:22;-7.10;99.90
22319;DHT22;11327;52.334;9.506;2024-01-11T04:33:44;-6.90;99.90
22319;DHT22;11327;52.334;9.506;2024-01-11T04:37:06;-7.10;99.90
22319;DHT22;11327;52.334;9.506;2024-01-11T04:40:26;-7.10;99.90
22319;DHT22;11327;52.334;9.506;2024-01-11T04:43:47;-7.10;99.90
22319;DHT22;11327;52.334;9.506;2024-01-11T04:47:08;-7.10;99.90
22319;DHT22;11327;52.334;9.506;2024-01-11T04:50:28;-7.00;99.90
22319;DHT22;11327;52.334;9.506;2024-01-11T04:53:49;-7.00;99.90
22319;DHT22;11327;52.334;9.506;2024-01-11T04:57:10;-7.00;99.90
22319;DHT22;11327;52.334;9.506;2024-01-11T05:00:31;-7.10;99.90
22319;DHT22;11327;52.334;9.506;2024-01-11T05:03:51;-7.10;99.90
22319;DHT22;11327;52.334;9.506;2024-01-11T05:07:12;-7.10;99.90
22319;DHT22;11327;52.334;9.506;2024-01-11T05:10:35;-7.10;99.90
22319;DHT22;11327;52.334;9.506;2024-01-11T05:13:56;-7.10;99.90
22319;DHT22;11327;52.334;9.506;2024-01-11T05:17:17;-7.10;99.90
22319;DHT22;11327;52.334;9.506;2024-01-11T05:20:38;-7.00;99.90
22319;DHT22;11327;52.334;9.506;2024-01-11T05:23:59;-7.00;99.90
22319;DHT22;11327;52.334;9.506;2024-01-11T05:27:20;-7.00;99.90
22319;DHT22;11327;52.334;9.506;2024-01-11T05:30:40;-7.00;99.90
22319;DHT22;11327;52.334;9.506;2024-01-11T05:34:02;-7.00;99.90
22319;DHT22;11327;52.334;9.506;2024-01-11T05:37:23;-7.00;99.90
22319;DHT22;11327;52.334;9.506;2024-01-11T05:40:43;-7.00;99.90
22319;DHT22;11327;52.334;9.506;2024-01-11T05:44:04;-7.00;99.90
22319;DHT22;11327;52.334;9.506;2024-01-11T05:47:25;-7.00;99.90
22319;DHT22;11327;52.334;9.506;2024-01-11T05:50:46;-7.00;99.90
22319;DHT22;11327;52.334;9.506;2024-01-11T05:54:07;-7.00;99.90
22319;DHT22;11327;52.334;9.506;2024-01-11T05:57:27;-7.00;99.90
22319;DHT22;11327;52.334;9.506;2024-01-11T06:00:48;-7.00;99.90
22319;DHT22;11327;52.334;9.506;2024-01-11T06:04:09;-7.10;99.90
22319;DHT22;11327;52.334;9.506;2024-01-11T06:07:30;-7.20;99.90
22319;DHT22;11327;52.334;9.506;2024-01-11T06:10:50;-7.10;99.90
22319;DHT22;11327;52.334;9.506;2024-01-11T06:14:11;-7.00;99.90
22319;DHT22;11327;52.334;9.506;2024-01-11T06:17:32;-7.00;99.90
22319;DHT22;11327;52.334;9.506;2024-01-11T06:20:52;-7.00;99.90
22319;DHT22;11327;52.334;9.506;2024-01-11T06:24:13;-7.00;99.90
22319;DHT22;11327;52.334;9.506;2024-01-11T06:27:34;-7.00;99.90
22319;DHT22;11327;52.334;9.506;2024-01-11T06:30:54;-7.00;99.90
22319;DHT22;11327;52.334;9.506;2024-01-11T06:34:15;-6.90;99.90
22319;DHT22;11327;52.334;9.506;2024-01-11T06:37:36;-7.00;99.90
22319;DHT22;11327;52.334;9.506;2024-01-11T06:40:56;-7.00;99.90
22319;DHT22;11327;52.334;9.506;2024-01-11T06:44:17;-7.10;99.90
22319;DHT22;11327;52.334;9.506;2024-01-11T06:47:38;-7.00;99.90
22319;DHT22;11327;52.334;9.506;2024-01-11T06:50:59;-7.10;99.90
22319;DHT22;11327;52.334;9.506;2024-01-11T06:54:19;-7.00;99.90
22319;DHT22;11327;52.334;9.506;2024-01-11T06:57:40;-6.90;99.90
22319;DHT22;11327;52.334;9.506;2024-01-11T07:01:01;-6.90;99.90
22319;DHT22;11327;52.334;9.506;2024-01-11T07:04:21;-7.00;99.90
22319;DHT22;11327;52.334;9.506;2024-01-11T07:07:42;-7.10;99.90
22319;DHT22;11327;52.334;9.506;2024-01-11T07:11:03;-7.00;99.90
22319;DHT22;11327;52.334;9.506;2024-01-11T07:14:24;-7.00;99.90
22319;DHT22;11327;52.334;9.506;2024-01-11T07:17:45;-7.00;99.90
22319;DHT22;11327;52.334;9.506;2024-01-11T07:21:05;-6.90;99.90
22319;DHT22;11327;52.334;9.506;2024-01-11T07:24:26;-6.90;99.90
22319;DHT22;11327;52.334;9.506;2024-01-11T07:27:47;-6.90;99.90
22319;DHT22;11327;52.334;9.506;2024-01-11T07:31:07;-6.90;99.90
22319;DHT22;11327;52.334;9.506;2024-01-11T07:34:28;-6.90;99.90
22319;DHT22;11327;52.334;9.506;2024-01-11T07:37:49;-6.90;99.90
22319;DHT22;11327;52.334;9.506;2024-01-11T07:41:10;-6.80;99.90
22319;DHT22;11327;52.334;9.506;2024-01-11T07:44:31;-6.80;99.90
22319;DHT22;11327;52.334;9.506;2024-01-11T07:47:52;-6.80;99.90
22319;DHT22;11327;52.334;9.506;2024-01-11T07:51:13;-6.80;99.90
22319;DHT22;11327;52.334;9.506;2024-01-11T07:54:34;-6.80;99.90
22319;DHT22;11327;52.334;9.506;2024-01-11T07:57:54;-6.80;99.90
22319;DHT22;11327;52.334;9.506;2024-01-11T08:01:15;-6.80;99.90
22319;DHT22;11327;52.334;9.506;2024-01-11T08:04:36;-6.70;99.90
22319;DHT22;11327;52.334;9.506;2024-01-11T08:07:59;-6.70;99.90
22319;DHT22;11327;52.334;9.506;2024-01-11T08:11:21;-6.70;99.90
22319;DHT22;11327;52.334;9.506;2024-01-11T08:14:42;-6.70;99.90
22319;DHT22;11327;52.334;9.506;2024-01-11T08:18:03;-6.60;99.90
22319;DHT22;11327;52.334;9.506;2024-01-11T08:21:25;-6.60;99.90
22319;DHT22;11327;52.334;9.506;2024-01-11T08:24:46;-6.40;99.90
22319;DHT22;11327;52.334;9.506;2024-01-11T08:28:08;-6.50;99.90
22319;DHT22;11327;52.334;9.506;2024-01-11T08:31:28;-6.40;99.90
22319;DHT22;11327;52.334;9.506;2024-01-11T08:34:49;-6.40;99.90
22319;DHT22;11327;52.334;9.506;2024-01-11T08:38:10;-6.40;99.90
22319;DHT22;11327;52.334;9.506;2024-01-11T08:41:33;-6.40;99.90
22319;DHT22;11327;52.334;9.506;2024-01-11T08:44:53;-6.30;99.90
22319;DHT22;11327;52.334;9.506;2024-01-11T08:48:14;-6.20;99.90
22319;DHT22;11327;52.334;9.506;2024-01-11T08:51:35;-6.10;99.90
22319;DHT22;11327;52.334;9.506;2024-01-11T08:54:56;-6.10;99.90
22319;DHT22;11327;52.334;9.506;2024-01-11T08:58:17;-6.10;99.90
22319;DHT22;11327;52.334;9.506;2024-01-11T09:01:38;-5.90;99.90
22319;DHT22;11327;52.334;9.506;2024-01-11T09:04:59;-5.80;99.90
22319;DHT22;11327;52.334;9.506;2024-01-11T09:08:20;-5.80;99.90
22319;DHT22;11327;52.334;9.506;2024-01-11T09:11:40;-5.70;99.90
22319;DHT22;11327;52.334;9.506;2024-01-11T09:15:02;-5.70;99.90
22319;DHT22;11327;52.334;9.506;2024-01-11T09:18:22;-5.60;99.90
22319;DHT22;11327;52.334;9.506;2024-01-11T09:21:43;-5.60;99.90
22319;DHT22;11327;52.334;9.506;2024-01-11T09:25:04;-5.50;99.90
22319;DHT22;11327;52.334;9.506;2024-01-11T09:28:27;-5.40;99.90
22319;DHT22;11327;52.334;9.506;2024-01-11T09:31:48;-5.20;99.90
22319;DHT22;11327;52.334;9.506;2024-01-11T09:35:08;-5.20;99.90
22319;DHT22;11327;52.334;9.506;2024-01-11T09:38:29;-5.10;99.90
22319;DHT22;11327;52.334;9.506;2024-01-11T09:41:58;-5.10;99.90
22319;DHT22;11327;52.334;9.506;2024-01-11T09:45:19;-5.00;99.90
22319;DHT22;11327;52.334;9.506;2024-01-11T09:48:40;-5.00;99.90
22319;DHT22;11327;52.334;9.506;2024-01-11T09:52:05;-5.00;99.90
22319;DHT22;11327;52.334;9.506;2024-01-11T09:55:26;-4.90;99.90
22319;DHT22;11327;52.334;9.506;2024-01-11T09:58:47;-4.80;99.90
22319;DHT22;11327;52.334;9.506;2024-01-11T10:02:11;-4.80;99.90
22319;DHT22;11327;52.334;9.506;2024-01-11T10:05:34;-4.70;99.90
22319;DHT22;11327;52.334;9.506;2024-01-11T10:08:56;-4.60;99.90
22319;DHT22;11327;52.334;9.506;2024-01-11T10:12:22;-4.50;99.90
22319;DHT22;11327;52.334;9.506;2024-01-11T10:15:45;-4.40;99.90
22319;DHT22;11327;52.334;9.506;2024-01-11T10:19:06;-4.40;99.90
22319;DHT22;11327;52.334;9.506;2024-01-11T10:22:28;-4.30;99.90
22319;DHT22;11327;52.334;9.506;2024-01-11T10:25:49;-4.20;99.90
22319;DHT22;11327;52.334;9.506;2024-01-11T10:29:11;-4.10;99.90
22319;DHT22;11327;52.334;9.506;2024-01-11T10:32:33;-4.00;99.90
22319;DHT22;11327;52.334;9.506;2024-01-11T10:35:55;-3.80;99.90
22319;DHT22;11327;52.334;9.506;2024-01-11T10:39:16;-3.70;99.90
22319;DHT22;11327;52.334;9.506;2024-01-11T10:42:42;-3.60;99.90
22319;DHT22;11327;52.334;9.506;2024-01-11T10:46:05;-3.50;99.90
22319;DHT22;11327;52.334;9.506;2024-01-11T10:49:30;-3.50;99.90
22319;DHT22;11327;52.334;9.506;2024-01-11T10:53:03;-3.30;99.90
22319;DHT22;11327;52.334;9.506;2024-01-11T10:56:25;-3.10;99.90
22319;DHT22;11327;52.334;9.506;2024-01-11T10:59:47;-3.10;99.90
22319;DHT22;11327;52.334;9.506;2024-01-11T11:03:10;-3.00;99.90
22319;DHT22;11327;52.334;9.506;2024-01-11T11:06:34;-2.80;99.90
22319;DHT22;11327;52.334;9.506;2024-01-11T11:09:56;-2.80;99.90
22319;DHT22;11327;52.334;9.506;2024-01-11T11:13:18;-2.70;99.90
22319;DHT22;11327;52.334;9.506;2024-01-11T11:16:39;-2.70;99.90
22319;DHT22;11327;52.334;9.506;2024-01-11T11:19:59;-2.70;99.90
22319;DHT22;11327;52.334;9.506;2024-01-11T11:23:20;-2.50;99.90
22319;DHT22;11327;52.334;9.506;2024-01-11T11:26:41;-2.50;99.90
22319;DHT22;11327;52.334;9.506;2024-01-11T11:30:03;-2.50;99.90
22319;DHT22;11327;52.334;9.506;2024-01-11T11:33:25;-2.40;99.90
22319;DHT22;11327;52.334;9.506;2024-01-11T11:36:46;-2.40;99.90
22319;DHT22;11327;52.334;9.506;2024-01-11T11:40:10;-2.40;99.90
22319;DHT22;11327;52.334;9.506;2024-01-11T11:43:31;-2.30;99.90
22319;DHT22;11327;52.334;9.506;2024-01-11T11:46:52;-2.30;99.90
22319;DHT22;11327;52.334;9.506;2024-01-11T11:50:13;-2.20;99.90
22319;DHT22;11327;52.334;9.506;2024-01-11T11:53:39;-2.20;99.90
22319;DHT22;11327;52.334;9.506;2024-01-11T11:57:00;-2.10;99.90
22319;DHT22;11327;52.334;9.506;2024-01-11T12:00:20;-2.00;99.90
22319;DHT22;11327;52.334;9.506;2024-01-11T12:03:42;-2.00;99.90
22319;DHT22;11327;52.334;9.506;2024-01-11T12:07:05;-2.00;99.90
22319;DHT22;11327;52.334;9.506;2024-01-11T12:10:26;-1.90;99.90
22319;DHT22;11327;52.334;9.506;2024-01-11T12:13:48;-2.00;99.90
22319;DHT22;11327;52.334;9.506;2024-01-11T12:17:09;-1.90;99.90
22319;DHT22;11327;52.334;9.506;2024-01-11T12:20:30;-1.90;99.90
22319;DHT22;11327;52.334;9.506;2024-01-11T12:23:51;-1.80;99.90
22319;DHT22;11327;52.334;9.506;2024-01-11T12:27:11;-1.80;99.90
22319;DHT22;11327;52.334;9.506;2024-01-11T12:30:32;-1.80;99.90
22319;DHT22;11327;52.334;9.506;2024-01-11T12:33:53;-1.70;99.90
22319;DHT22;11327;52.334;9.506;2024-01-11T12:37:15;-1.70;99.90
22319;DHT22;11327;52.334;9.506;2024-01-11T12:40:37;-1.60;99.90
22319;DHT22;11327;52.334;9.506;2024-01-11T12:43:58;-1.50;99.90
22319;DHT22;11327;52.334;9.506;2024-01-11T12:47:19;-1.50;99.90
22319;DHT22;11327;52.334;9.506;2024-01-11T12:50:40;-1.50;99.90
22319;DHT22;11327;52.334;9.506;2024-01-11T12:54:00;-1.40;99.90
22319;DHT22;11327;52.334;9.506;2024-01-11T12:57:21;-1.20;99.90
22319;DHT22;11327;52.334;9.506;2024-01-11T13:00:42;-1.20;99.90
22319;DHT22;11327;52.334;9.506;2024-01-11T13:04:03;-1.10;99.90
22319;DHT22;11327;52.334;9.506;2024-01-11T13:07:23;-1.00;99.90
22319;DHT22;11327;52.334;9.506;2024-01-11T13:10:45;-1.00;99.90
22319;DHT22;11327;52.334;9.506;2024-01-11T13:14:08;-1.00;99.90
22319;DHT22;11327;52.334;9.506;2024-01-11T13:17:30;-1.00;99.90
22319;DHT22;11327;52.334;9.506;2024-01-11T13:20:51;-1.00;99.90
22319;DHT22;11327;52.334;9.506;2024-01-11T13:24:11;-0.90;99.90
22319;DHT22;11327;52.334;9.506;2024-01-11T13:27:33;-0.90;99.90
22319;DHT22;11327;52.334;9.506;2024-01-11T13:30:54;-0.90;99.90
22319;DHT22;11327;52.334;9.506;2024-01-11T13:34:14;-0.90;99.90
22319;DHT22;11327;52.334;9.506;2024-01-11T13:37:35;-0.80;99.90
22319;DHT22;11327;52.334;9.506;2024-01-11T13:40:56;-0.80;99.90
22319;DHT22;11327;52.334;9.506;2024-01-11T13:44:16;-0.80;99.90
22319;DHT22;11327;52.334;9.506;2024-01-11T13:47:37;-0.80;99.90
22319;DHT22;11327;52.334;9.506;2024-01-11T13:50:59;-0.80;99.90
22319;DHT22;11327;52.334;9.506;2024-01-11T13:54:20;-0.70;99.90
22319;DHT22;11327;52.334;9.506;2024-01-11T13:57:42;-0.70;99.90
22319;DHT22;11327;52.334;9.506;2024-01-11T14:01:04;-0.70;99.90
22319;DHT22;11327;52.334;9.506;2024-01-11T14:04:25;-0.60;99.90
22319;DHT22;11327;52.334;9.506;2024-01-11T14:07:46;-0.60;99.90
22319;DHT22;11327;52.334;9.506;2024-01-11T14:11:06;-0.60;99.90
22319;DHT22;11327;52.334;9.506;2024-01-11T14:14:27;-0.60;99.90
22319;DHT22;11327;52.334;9.506;2024-01-11T14:17:48;-0.70;99.90
22319;DHT22;11327;52.334;9.506;2024-01-11T14:21:09;-0.70;99.90
22319;DHT22;11327;52.334;9.506;2024-01-11T14:24:31;-0.70;99.90
22319;DHT22;11327;52.334;9.506;2024-01-11T14:27:52;-0.60;99.90
22319;DHT22;11327;52.334;9.506;2024-01-11T14:31:13;-0.60;99.90
22319;DHT22;11327;52.334;9.506;2024-01-11T14:34:34;-0.60;99.90
22319;DHT22;11327;52.334;9.506;2024-01-11T14:37:54;-0.50;99.90
22319;DHT22;11327;52.334;9.506;2024-01-11T14:41:15;-0.50;99.90
22319;DHT22;11327;52.334;9.506;2024-01-11T14:44:36;-0.50;99.90
22319;DHT22;11327;52.334;9.506;2024-01-11T14:47:57;-0.40;99.90
22319;DHT22;11327;52.334;9.506;2024-01-11T14:51:18;-0.30;99.90
22319;DHT22;11327;52.334;9.506;2024-01-11T14:54:39;-0.20;99.90
22319;DHT22;11327;52.334;9.506;2024-01-11T14:58:00;-0.20;99.90
22319;DHT22;11327;52.334;9.506;2024-01-11T15:01:20;-0.20;99.90
22319;DHT22;11327;52.334;9.506;2024-01-11T15:04:41;-0.10;99.90
22319;DHT22;11327;52.334;9.506;2024-01-11T15:08:02;0.00;99.90
22319;DHT22;11327;52.334;9.506;2024-01-11T15:11:23;0.00;99.90
22319;DHT22;11327;52.334;9.506;2024-01-11T15:14:43;0.00;99.90
22319;DHT22;11327;52.334;9.506;2024-01-11T15:18:05;0.00;99.90
22319;DHT22;11327;52.334;9.506;2024-01-11T15:21:25;0.10;99.90
22319;DHT22;11327;52.334;9.506;2024-01-11T15:24:46;0.10;99.90
22319;DHT22;11327;52.334;9.506;2024-01-11T15:28:10;0.00;99.90
22319;DHT22;11327;52.334;9.506;2024-01-11T15:31:30;0.00;99.90
22319;DHT22;11327;52.334;9.506;2024-01-11T15:34:51;0.00;99.90
22319;DHT22;11327;52.334;9.506;2024-01-11T15:38:13;0.00;99.90
22319;DHT22;11327;52.334;9.506;2024-01-11T15:41:34;0.00;99.90
22319;DHT22;11327;52.334;9.506;2024-01-11T15:44:54;0.00;99.90
22319;DHT22;11327;52.334;9.506;2024-01-11T15:48:15;0.00;99.90
22319;DHT22;11327;52.334;9.506;2024-01-11T15:51:36;0.00;99.90
22319;DHT22;11327;52.334;9.506;2024-01-11T15:54:57;0.00;99.90
22319;DHT22;11327;52.334;9.506;2024-01-11T15:58:19;0.00;99.90
22319;DHT22;11327;52.334;9.506;2024-01-11T16:01:41;0.10;99.90
22319;DHT22;11327;52.334;9.506;2024-01-11T16:05:01;0.10;99.90
22319;DHT22;11327;52.334;9.506;2024-01-11T16:08:24;0.10;99.90
22319;DHT22;11327;52.334;9.506;2024-01-11T16:11:45;0.00;99.90
22319;DHT22;11327;52.334;9.506;2024-01-11T16:15:06;0.10;99.90
22319;DHT22;11327;52.334;9.506;2024-01-11T16:18:27;0.10;99.90
22319;DHT22;11327;52.334;9.506;2024-01-11T16:21:48;0.20;99.90
22319;DHT22;11327;52.334;9.506;2024-01-11T16:25:09;0.20;99.90
22319;DHT22;11327;52.334;9.506;2024-01-11T16:28:30;0.20;99.90
22319;DHT22;11327;52.334;9.506;2024-01-11T16:31:51;0.10;99.90
22319;DHT22;11327;52.334;9.506;2024-01-11T16:35:11;0.20;99.90
22319;DHT22;11327;52.334;9.506;2024-01-11T16:38:32;0.30;99.90
22319;DHT22;11327;52.334;9.506;2024-01-11T16:41:53;0.30;99.90
22319;DHT22;11327;52.334;9.506;2024-01-11T16:45:14;0.30;99.90
22319;DHT22;11327;52.334;9.506;2024-01-11T16:48:35;0.30;99.90
22319;DHT22;11327;52.334;9.506;2024-01-11T16:51:56;0.30;99.90
22319;DHT22;11327;52.334;9.506;2024-01-11T16:55:18;0.30;99.90
22319;DHT22;11327;52.334;9.506;2024-01-11T16:58:39;0.30;99.90
22319;DHT22;11327;52.334;9.506;2024-01-11T17:02:00;0.30;99.90
22319;DHT22;11327;52.334;9.506;2024-01-11T17:05:21;0.30;99.90
22319;DHT22;11327;52.334;9.506;2024-01-11T17:08:41;0.30;99.90
22319;DHT22;11327;52.334;9.506;2024-01-11T17:12:02;0.30;99.90
22319;DHT22;11327;52.334;9.506;2024-01-11T17:15:23;0.30;99.90
22319;DHT22;11327;52.334;9.506;2024-01-11T17:18:44;0.30;99.90
22319;DHT22;11327;52.334;9.506;2024-01-11T17:22:06;0.30;99.90
22319;DHT22;11327;52.334;9.506;2024-01-11T17:25:27;0.30;99.90
22319;DHT22;11327;52.334;9.506;2024-01-11T17:28:48;0.30;99.90
22319;DHT22;11327;52.334;9.506;2024-01-11T17:32:09;0.30;99.90
22319;DHT22;11327;52.334;9.506;2024-01-11T17:35:29;0.30;99.90
22319;DHT22;11327;52.334;9.506;2024-01-11T17:38:50;0.30;99.90
22319;DHT22;11327;52.334;9.506;2024-01-11T17:42:11;0.30;99.90
22319;DHT22;11327;52.334;9.506;2024-01-11T17:45:32;0.30;99.90
22319;DHT22;11327;52.334;9.506;2024-01-11T17:48:55;0.40;99.90
22319;DHT22;11327;52.334;9.506;2024-01-11T17:52:17;0.40;99.90
22319;DHT22;11327;52.334;9.506;2024-01-11T17:55:38;0.40;99.90
22319;DHT22;11327;52.334;9.506;2024-01-11T17:59:02;0.40;99.90
22319;DHT22;11327;52.334;9.506;2024-01-11T18:02:25;0.40;99.90
22319;DHT22;11327;52.334;9.506;2024-01-11T18:05:46;0.40;99.90
22319;DHT22;11327;52.334;9.506;2024-01-11T18:09:06;0.40;99.90
22319;DHT22;11327;52.334;9.506;2024-01-11T18:12:28;0.40;99.90
22319;DHT22;11327;52.334;9.506;2024-01-11T18:15:49;0.40;99.90
22319;DHT22;11327;52.334;9.506;2024-01-11T18:19:09;0.40;99.90
22319;DHT22;11327;52.334;9.506;2024-01-11T18:22:32;0.40;99.90
22319;DHT22;11327;52.334;9.506;2024-01-11T18:25:53;0.50;99.90
22319;DHT22;11327;52.334;9.506;2024-01-11T18:29:14;0.40;99.90
22319;DHT22;11327;52.334;9.506;2024-01-11T18:32:35;0.50;99.90
22319;DHT22;11327;52.334;9.506;2024-01-11T18:35:55;0.50;99.90
22319;DHT22;11327;52.334;9.506;2024-01-11T18:39:16;0.50;99.90
22319;DHT22;11327;52.334;9.506;2024-01-11T18:42:37;0.50;99.90
22319;DHT22;11327;52.334;9.506;2024-01-11T18:45:58;0.50;99.90
22319;DHT22;11327;52.334;9.506;2024-01-11T18:49:19;0.60;99.90
22319;DHT22;11327;52.334;9.506;2024-01-11T18:52:40;0.60;99.90
22319;DHT22;11327;52.334;9.506;2024-01-11T18:56:02;0.50;99.90
22319;DHT22;11327;52.334;9.506;2024-01-11T18:59:23;0.60;99.90
22319;DHT22;11327;52.334;9.506;2024-01-11T19:02:45;0.50;99.90
22319;DHT22;11327;52.334;9.506;2024-01-11T19:06:07;0.50;99.90
22319;DHT22;11327;52.334;9.506;2024-01-11T19:09:28;0.50;99.90
22319;DHT22;11327;52.334;9.506;2024-01-11T19:12:49;0.50;99.90
22319;DHT22;11327;52.334;9.506;2024-01-11T19:16:10;0.50;99.90
22319;DHT22;11327;52.334;9.506;2024-01-11T19:19:31;0.40;99.90
22319;DHT22;11327;52.334;9.506;2024-01-11T19:22:52;0.50;99.90
22319;DHT22;11327;52.334;9.506;2024-01-11T19:26:12;0.40;99.90
22319;DHT22;11327;52.334;9.506;2024-01-11T19:29:33;0.40;99.90
22319;DHT22;11327;52.334;9.506;2024-01-11T19:32:54;0.40;99.90
22319;DHT22;11327;52.334;9.506;2024-01-11T19:36:15;0.40;99.90
22319;DHT22;11327;52.334;9.506;2024-01-11T19:39:36;0.40;99.90
22319;DHT22;11327;52.334;9.506;2024-01-11T19:42:57;0.30;99.90
22319;DHT22;11327;52.334;9.506;2024-01-11T19:46:18;0.40;99.90
22319;DHT22;11327;52.334;9.506;2024-01-11T19:49:39;0.40;99.90
22319;DHT22;11327;52.334;9.506;2024-01-11T19:53:00;0.40;99.90
22319;DHT22;11327;52.334;9.506;2024-01-11T19:56:22;0.40;99.90
22319;DHT22;11327;52.334;9.506;2024-01-11T19:59:42;0.40;99.90
22319;DHT22;11327;52.334;9.506;2024-01-11T20:03:03;0.40;99.90
22319;DHT22;11327;52.334;9.506;2024-01-11T20:06:24;0.40;99.90
22319;DHT22;11327;52.334;9.506;2024-01-11T20:09:45;0.40;99.90
22319;DHT22;11327;52.334;9.506;2024-01-11T20:13:06;0.40;99.90
22319;DHT22;11327;52.334;9.506;2024-01-11T20:16:26;0.30;99.90
22319;DHT22;11327;52.334;9.506;2024-01-11T20:19:47;0.30;99.90
22319;DHT22;11327;52.334;9.506;2024-01-11T20:23:10;0.30;99.90
22319;DHT22;11327;52.334;9.506;2024-01-11T20:26:31;0.30;99.90
22319;DHT22;11327;52.334;9.506;2024-01-11T20:29:52;0.30;99.90
22319;DHT22;11327;52.334;9.506;2024-01-11T20:33:13;0.30;99.90
22319;DHT22;11327;52.334;9.506;2024-01-11T20:36:33;0.30;99.90
22319;DHT22;11327;52.334;9.506;2024-01-11T20:39:54;0.30;99.90
22319;DHT22;11327;52.334;9.506;2024-01-11T20:43:15;0.30;99.90
22319;DHT22;11327;52.334;9.506;2024-01-11T20:46:35;0.40;99.90
22319;DHT22;11327;52.334;9.506;2024-01-11T20:49:56;0.30;99.90
22319;DHT22;11327;52.334;9.506;2024-01-11T20:53:17;0.30;99.90
22319;DHT22;11327;52.334;9.506;2024-01-11T20:56:43;0.30;99.90
22319;DHT22;11327;52.334;9.506;2024-01-11T21:00:06;0.30;99.90
22319;DHT22;11327;52.334;9.506;2024-01-11T21:03:27;0.30;99.90
22319;DHT22;11327;52.334;9.506;2024-01-11T21:06:48;0.30;99.90
22319;DHT22;11327;52.334;9.506;2024-01-11T21:10:09;0.30;99.90
22319;DHT22;11327;52.334;9.506;2024-01-11T21:13:29;0.30;99.90
22319;DHT22;11327;52.334;9.506;2024-01-11T21:16:50;0.30;99.90